sensor_id;sensor_type;location;lat;lon;timestamp;P1;durP1;ratioP1;P2;durP2;ratioP2
63690;SDS011;49837;57.280;27.070;2024-03-29T00:00:06;8.4;;;4.5;;
63690;SDS011;49837;57.280;27.070;2024-03-29T00:01:06;10.9;;;4.5;;
63690;SDS011;49837;57.280;27.070;2024-03-29T00:02:06;11.5;;;4.6;;
63690;SDS011;49837;57.280;27.070;2024-03-29T00:03:07;9.0;;;4.6;;
63690;SDS011;49837;57.280;27.070;2024-03-29T00:04:07;9.0;;;4.7;;
63690;SDS011;49837;57.280;27.070;2024-03-29T00:05:08;9.8;;;4.8;;
63690;SDS011;49837;57.280;27.070;2024-03-29T00:06:08;9.7;;;4.7;;
63690;SDS011;49837;57.280;27.070;2024-03-29T00:07:08;10.3;;;4.9;;
63690;SDS011;49837;57.280;27.070;2024-03-29T00:08:10;10.8;;;4.7;;
63690;SDS011;49837;57.280;27.070;2024-03-29T00:09:09;12.3;;;4.8;;
63690;SDS011;49837;57.280;27.070;2024-03-29T00:10:10;9.8;;;4.5;;
63690;SDS011;49837;57.280;27.070;2024-03-29T00:11:10;10.4;;;4.7;;
63690;SDS011;49837;57.280;27.070;2024-03-29T00:12:10;11.0;;;4.9;;
63690;SDS011;49837;57.280;27.070;2024-03-29T00:13:11;8.1;;;4.5;;
63690;SDS011;49837;57.280;27.070;2024-03-29T00:14:11;8.6;;;4.5;;
63690;SDS011;49837;57.280;27.070;2024-03-29T00:15:11;8.2;;;4.5;;
63690;SDS011;49837;57.280;27.070;2024-03-29T00:16:12;9.7;;;4.6;;
63690;SDS011;49837;57.280;27.070;2024-03-29T00:17:12;8.6;;;4.7;;
63690;SDS011;49837;57.280;27.070;2024-03-29T00:18:13;9.7;;;4.6;;
63690;SDS011;49837;57.280;27.070;2024-03-29T00:19:13;8.8;;;5.1;;
63690;SDS011;49837;57.280;27.070;2024-03-29T00:20:13;11.5;;;4.6;;
63690;SDS011;49837;57.280;27.070;2024-03-29T00:21:14;8.5;;;4.5;;
63690;SDS011;49837;57.280;27.070;2024-03-29T00:22:14;9.4;;;4.4;;
63690;SDS011;49837;57.280;27.070;2024-03-29T00:23:15;11.1;;;4.7;;
63690;SDS011;49837;57.280;27.070;2024-03-29T00:24:15;9.7;;;5.2;;
63690;SDS011;49837;57.280;27.070;2024-03-29T00:25:15;8.1;;;4.4;;
63690;SDS011;49837;57.280;27.070;2024-03-29T00:26:16;11.8;;;4.9;;
63690;SDS011;49837;57.280;27.070;2024-03-29T00:27:16;9.5;;;4.6;;
63690;SDS011;49837;57.280;27.070;2024-03-29T00:28:17;9.0;;;5.0;;
63690;SDS011;49837;57.280;27.070;2024-03-29T00:29:17;12.5;;;4.5;;
63690;SDS011;49837;57.280;27.070;2024-03-29T00:30:18;12.4;;;4.9;;
63690;SDS011;49837;57.280;27.070;2024-03-29T00:31:18;8.6;;;4.9;;
63690;SDS011;49837;57.280;27.070;2024-03-29T00:32:18;9.6;;;5.1;;
63690;SDS011;49837;57.280;27.070;2024-03-29T00:33:19;9.1;;;4.4;;
63690;SDS011;49837;57.280;27.070;2024-03-29T00:34:19;12.0;;;5.2;;
63690;SDS011;49837;57.280;27.070;2024-03-29T00:35:20;12.7;;;4.9;;
63690;SDS011;49837;57.280;27.070;2024-03-29T00:36:20;12.0;;;5.1;;
63690;SDS011;49837;57.280;27.070;2024-03-29T00:37:20;8.0;;;4.7;;
63690;SDS011;49837;57.280;27.070;2024-03-29T00:38:21;8.9;;;4.8;;
63690;SDS011;49837;57.280;27.070;2024-03-29T00:39:21;8.7;;;4.8;;
63690;SDS011;49837;57.280;27.070;2024-03-29T00:40:22;9.8;;;4.5;;
63690;SDS011;49837;57.280;27.070;2024-03-29T00:41:22;10.3;;;4.8;;
63690;SDS011;49837;57.280;27.070;2024-03-29T00:42:22;12.9;;;4.7;;
63690;SDS011;49837;57.280;27.070;2024-03-29T00:43:23;10.5;;;5.3;;
63690;SDS011;49837;57.280;27.070;2024-03-29T00:44:23;9.8;;;4.8;;
63690;SDS011;49837;57.280;27.070;2024-03-29T00:45:24;10.2;;;4.8;;
63690;SDS011;49837;57.280;27.070;2024-03-29T00:46:23;9.8;;;4.9;;
63690;SDS011;49837;57.280;27.070;2024-03-29T00:47:24;11.2;;;4.9;;
63690;SDS011;49837;57.280;27.070;2024-03-29T00:48:24;9.1;;;4.9;;
63690;SDS011;49837;57.280;27.070;2024-03-29T00:49:25;10.5;;;5.0;;
63690;SDS011;49837;57.280;27.070;2024-03-29T00:50:25;10.0;;;4.6;;
63690;SDS011;49837;57.280;27.070;2024-03-29T00:51:25;10.8;;;4.9;;
63690;SDS011;49837;57.280;27.070;2024-03-29T00:52:26;12.1;;;4.9;;
63690;SDS011;49837;57.280;27.070;2024-03-29T00:53:26;10.5;;;4.9;;
63690;SDS011;49837;57.280;27.070;2024-03-29T00:54:27;12.7;;;4.8;;
63690;SDS011;49837;57.280;27.070;2024-03-29T00:55:27;9.9;;;4.6;;
63690;SDS011;49837;57.280;27.070;2024-03-29T00:56:27;11.5;;;5.0;;
63690;SDS011;49837;57.280;27.070;2024-03-29T00:57:28;10.5;;;4.5;;
63690;SDS011;49837;57.280;27.070;2024-03-29T00:58:28;8.3;;;4.8;;
63690;SDS011;49837;57.280;27.070;2024-03-29T00:59:28;10.0;;;4.8;;
63690;SDS011;49837;57.280;27.070;2024-03-29T01:00:29;9.4;;;4.8;;
63690;SDS011;49837;57.280;27.070;2024-03-29T01:01:29;8.0;;;4.9;;
63690;SDS011;49837;57.280;27.070;2024-03-29T01:02:30;9.1;;;5.1;;
63690;SDS011;49837;57.280;27.070;2024-03-29T01:03:30;11.0;;;5.0;;
63690;SDS011;49837;57.280;27.070;2024-03-29T01:04:31;10.6;;;5.3;;
63690;SDS011;49837;57.280;27.070;2024-03-29T01:05:31;8.6;;;4.8;;
63690;SDS011;49837;57.280;27.070;2024-03-29T01:06:31;12.0;;;4.8;;
63690;SDS011;49837;57.280;27.070;2024-03-29T01:07:32;9.6;;;5.0;;
63690;SDS011;49837;57.280;27.070;2024-03-29T01:08:32;12.5;;;5.6;;
63690;SDS011;49837;57.280;27.070;2024-03-29T01:09:33;9.1;;;5.6;;
63690;SDS011;49837;57.280;27.070;2024-03-29T01:10:33;10.2;;;5.5;;
63690;SDS011;49837;57.280;27.070;2024-03-29T01:11:33;13.7;;;5.5;;
63690;SDS011;49837;57.280;27.070;2024-03-29T01:12:34;9.6;;;5.1;;
63690;SDS011;49837;57.280;27.070;2024-03-29T01:13:34;10.7;;;5.2;;
63690;SDS011;49837;57.280;27.070;2024-03-29T01:14:35;11.4;;;4.6;;
63690;SDS011;49837;57.280;27.070;2024-03-29T01:15:35;8.7;;;4.7;;
63690;SDS011;49837;57.280;27.070;2024-03-29T01:16:36;8.3;;;4.7;;
63690;SDS011;49837;57.280;27.070;2024-03-29T01:17:36;9.9;;;4.9;;
63690;SDS011;49837;57.280;27.070;2024-03-29T01:18:36;10.9;;;4.9;;
63690;SDS011;49837;57.280;27.070;2024-03-29T01:19:37;9.8;;;5.1;;
63690;SDS011;49837;57.280;27.070;2024-03-29T01:20:38;9.8;;;4.8;;
63690;SDS011;49837;57.280;27.070;2024-03-29T01:21:38;9.4;;;5.0;;
63690;SDS011;49837;57.280;27.070;2024-03-29T01:22:38;7.3;;;4.8;;
63690;SDS011;49837;57.280;27.070;2024-03-29T01:23:38;8.4;;;4.6;;
63690;SDS011;49837;57.280;27.070;2024-03-29T01:24:39;8.0;;;4.7;;
63690;SDS011;49837;57.280;27.070;2024-03-29T01:25:39;11.9;;;5.2;;
63690;SDS011;49837;57.280;27.070;2024-03-29T01:26:39;8.3;;;4.8;;
63690;SDS011;49837;57.280;27.070;2024-03-29T01:27:40;8.9;;;5.1;;
63690;SDS011;49837;57.280;27.070;2024-03-29T01:28:40;11.2;;;5.3;;
63690;SDS011;49837;57.280;27.070;2024-03-29T01:29:41;9.1;;;5.2;;
63690;SDS011;49837;57.280;27.070;2024-03-29T01:30:41;9.4;;;4.9;;
63690;SDS011;49837;57.280;27.070;2024-03-29T01:31:41;9.3;;;5.2;;
63690;SDS011;49837;57.280;27.070;2024-03-29T01:32:42;8.6;;;4.9;;
63690;SDS011;49837;57.280;27.070;2024-03-29T01:33:42;8.1;;;4.7;;
63690;SDS011;49837;57.280;27.070;2024-03-29T01:34:43;10.2;;;4.7;;
63690;SDS011;49837;57.280;27.070;2024-03-29T01:35:43;9.2;;;4.6;;
63690;SDS011;49837;57.280;27.070;2024-03-29T01:36:43;9.7;;;5.0;;
63690;SDS011;49837;57.280;27.070;2024-03-29T01:37:44;8.5;;;5.1;;
63690;SDS011;49837;57.280;27.070;2024-03-29T01:38:44;8.9;;;4.8;;
63690;SDS011;49837;57.280;27.070;2024-03-29T01:39:45;8.8;;;4.8;;
63690;SDS011;49837;57.280;27.070;2024-03-29T01:40:46;9.1;;;5.0;;
63690;SDS011;49837;57.280;27.070;2024-03-29T01:41:45;9.2;;;4.8;;
63690;SDS011;49837;57.280;27.070;2024-03-29T01:42:46;9.1;;;5.1;;
63690;SDS011;49837;57.280;27.070;2024-03-29T01:43:46;10.9;;;5.1;;
63690;SDS011;49837;57.280;27.070;2024-03-29T01:44:46;8.2;;;5.1;;
63690;SDS011;49837;57.280;27.070;2024-03-29T01:45:47;9.6;;;4.9;;
63690;SDS011;49837;57.280;27.070;2024-03-29T01:46:47;7.5;;;4.8;;
63690;SDS011;49837;57.280;27.070;2024-03-29T01:47:48;7.9;;;4.5;;
63690;SDS011;49837;57.280;27.070;2024-03-29T01:48:49;8.3;;;4.9;;
63690;SDS011;49837;57.280;27.070;2024-03-29T01:49:48;8.0;;;5.1;;
63690;SDS011;49837;57.280;27.070;2024-03-29T01:50:49;10.0;;;5.3;;
63690;SDS011;49837;57.280;27.070;2024-03-29T01:51:49;8.5;;;4.8;;
63690;SDS011;49837;57.280;27.070;2024-03-29T01:52:50;10.4;;;4.9;;
63690;SDS011;49837;57.280;27.070;2024-03-29T01:53:50;7.5;;;4.6;;
63690;SDS011;49837;57.280;27.070;2024-03-29T01:54:51;8.8;;;5.1;;
63690;SDS011;49837;57.280;27.070;2024-03-29T01:55:51;9.1;;;4.6;;
63690;SDS011;49837;57.280;27.070;2024-03-29T01:56:52;9.6;;;5.0;;
63690;SDS011;49837;57.280;27.070;2024-03-29T01:57:52;9.9;;;5.0;;
63690;SDS011;49837;57.280;27.070;2024-03-29T01:58:52;10.3;;;5.2;;
63690;SDS011;49837;57.280;27.070;2024-03-29T01:59:53;8.4;;;5.2;;
63690;SDS011;49837;57.280;27.070;2024-03-29T02:00:57;9.7;;;5.3;;
63690;SDS011;49837;57.280;27.070;2024-03-29T02:01:56;7.8;;;5.0;;
63690;SDS011;49837;57.280;27.070;2024-03-29T02:02:57;8.3;;;4.9;;
63690;SDS011;49837;57.280;27.070;2024-03-29T02:03:57;12.2;;;5.1;;
63690;SDS011;49837;57.280;27.070;2024-03-29T02:04:57;11.0;;;5.0;;
63690;SDS011;49837;57.280;27.070;2024-03-29T02:05:58;9.5;;;5.4;;
63690;SDS011;49837;57.280;27.070;2024-03-29T02:06:58;11.1;;;5.5;;
63690;SDS011;49837;57.280;27.070;2024-03-29T02:07:58;10.6;;;5.1;;
63690;SDS011;49837;57.280;27.070;2024-03-29T02:08:59;8.1;;;4.7;;
63690;SDS011;49837;57.280;27.070;2024-03-29T02:09:59;10.7;;;5.3;;
63690;SDS011;49837;57.280;27.070;2024-03-29T02:11:00;10.2;;;4.9;;
63690;SDS011;49837;57.280;27.070;2024-03-29T02:12:00;9.2;;;5.3;;
63690;SDS011;49837;57.280;27.070;2024-03-29T02:13:01;12.1;;;5.4;;
63690;SDS011;49837;57.280;27.070;2024-03-29T02:14:01;11.4;;;5.7;;
63690;SDS011;49837;57.280;27.070;2024-03-29T02:15:01;10.8;;;5.6;;
63690;SDS011;49837;57.280;27.070;2024-03-29T02:16:02;9.4;;;5.3;;
63690;SDS011;49837;57.280;27.070;2024-03-29T02:17:02;11.5;;;5.6;;
63690;SDS011;49837;57.280;27.070;2024-03-29T02:18:02;9.2;;;5.2;;
63690;SDS011;49837;57.280;27.070;2024-03-29T02:19:03;10.5;;;5.3;;
63690;SDS011;49837;57.280;27.070;2024-03-29T02:20:03;9.7;;;5.3;;
63690;SDS011;49837;57.280;27.070;2024-03-29T02:21:04;9.0;;;5.2;;
63690;SDS011;49837;57.280;27.070;2024-03-29T02:22:04;8.5;;;5.1;;
63690;SDS011;49837;57.280;27.070;2024-03-29T02:23:11;9.5;;;5.0;;
63690;SDS011;49837;57.280;27.070;2024-03-29T02:24:08;9.2;;;5.1;;
63690;SDS011;49837;57.280;27.070;2024-03-29T02:25:08;10.8;;;5.2;;
63690;SDS011;49837;57.280;27.070;2024-03-29T02:26:09;9.9;;;5.4;;
63690;SDS011;49837;57.280;27.070;2024-03-29T02:27:09;11.9;;;5.5;;
63690;SDS011;49837;57.280;27.070;2024-03-29T02:28:09;7.6;;;4.8;;
63690;SDS011;49837;57.280;27.070;2024-03-29T02:29:10;9.0;;;5.3;;
63690;SDS011;49837;57.280;27.070;2024-03-29T02:30:13;8.9;;;5.2;;
63690;SDS011;49837;57.280;27.070;2024-03-29T02:31:11;10.6;;;5.5;;
63690;SDS011;49837;57.280;27.070;2024-03-29T02:32:12;8.7;;;5.3;;
63690;SDS011;49837;57.280;27.070;2024-03-29T02:33:12;10.3;;;5.2;;
63690;SDS011;49837;57.280;27.070;2024-03-29T02:34:13;12.7;;;5.6;;
63690;SDS011;49837;57.280;27.070;2024-03-29T02:35:13;11.3;;;5.6;;
63690;SDS011;49837;57.280;27.070;2024-03-29T02:36:13;9.3;;;5.2;;
63690;SDS011;49837;57.280;27.070;2024-03-29T02:37:14;11.0;;;5.1;;
63690;SDS011;49837;57.280;27.070;2024-03-29T02:38:14;10.6;;;5.4;;
63690;SDS011;49837;57.280;27.070;2024-03-29T02:39:15;11.3;;;5.5;;
63690;SDS011;49837;57.280;27.070;2024-03-29T02:40:15;10.7;;;5.1;;
63690;SDS011;49837;57.280;27.070;2024-03-29T02:41:16;10.3;;;4.8;;
63690;SDS011;49837;57.280;27.070;2024-03-29T02:42:16;9.2;;;5.2;;
63690;SDS011;49837;57.280;27.070;2024-03-29T02:43:16;10.5;;;5.5;;
63690;SDS011;49837;57.280;27.070;2024-03-29T02:44:17;10.5;;;5.9;;
63690;SDS011;49837;57.280;27.070;2024-03-29T02:45:17;10.3;;;6.5;;
63690;SDS011;49837;57.280;27.070;2024-03-29T02:46:17;10.2;;;5.9;;
63690;SDS011;49837;57.280;27.070;2024-03-29T02:47:18;10.2;;;5.6;;
63690;SDS011;49837;57.280;27.070;2024-03-29T02:48:18;11.2;;;5.9;;
63690;SDS011;49837;57.280;27.070;2024-03-29T02:49:19;9.8;;;5.7;;
63690;SDS011;49837;57.280;27.070;2024-03-29T02:50:19;10.4;;;5.7;;
63690;SDS011;49837;57.280;27.070;2024-03-29T02:51:19;11.1;;;6.0;;
63690;SDS011;49837;57.280;27.070;2024-03-29T02:52:20;10.4;;;5.6;;
63690;SDS011;49837;57.280;27.070;2024-03-29T02:53:20;11.7;;;5.8;;
63690;SDS011;49837;57.280;27.070;2024-03-29T02:54:20;9.5;;;5.4;;
63690;SDS011;49837;57.280;27.070;2024-03-29T02:55:21;10.7;;;5.2;;
63690;SDS011;49837;57.280;27.070;2024-03-29T02:56:21;8.9;;;5.4;;
63690;SDS011;49837;57.280;27.070;2024-03-29T02:57:22;9.4;;;5.8;;
63690;SDS011;49837;57.280;27.070;2024-03-29T02:58:22;10.2;;;6.1;;
63690;SDS011;49837;57.280;27.070;2024-03-29T02:59:22;10.8;;;5.1;;
63690;SDS011;49837;57.280;27.070;2024-03-29T03:00:23;10.3;;;5.5;;
63690;SDS011;49837;57.280;27.070;2024-03-29T03:01:23;9.0;;;5.8;;
63690;SDS011;49837;57.280;27.070;2024-03-29T03:02:24;10.8;;;5.9;;
63690;SDS011;49837;57.280;27.070;2024-03-29T03:03:26;10.8;;;6.0;;
63690;SDS011;49837;57.280;27.070;2024-03-29T03:04:24;8.6;;;5.8;;
63690;SDS011;49837;57.280;27.070;2024-03-29T03:05:25;9.1;;;5.4;;
63690;SDS011;49837;57.280;27.070;2024-03-29T03:06:25;10.4;;;5.7;;
63690;SDS011;49837;57.280;27.070;2024-03-29T03:07:26;9.6;;;6.1;;
63690;SDS011;49837;57.280;27.070;2024-03-29T03:08:26;10.6;;;7.4;;
63690;SDS011;49837;57.280;27.070;2024-03-29T03:09:26;10.9;;;6.0;;
63690;SDS011;49837;57.280;27.070;2024-03-29T03:10:27;11.6;;;6.0;;
63690;SDS011;49837;57.280;27.070;2024-03-29T03:11:27;9.8;;;5.9;;
63690;SDS011;49837;57.280;27.070;2024-03-29T03:12:28;11.0;;;5.7;;
63690;SDS011;49837;57.280;27.070;2024-03-29T03:13:28;10.6;;;6.0;;
63690;SDS011;49837;57.280;27.070;2024-03-29T03:14:28;9.3;;;5.8;;
63690;SDS011;49837;57.280;27.070;2024-03-29T03:15:29;10.1;;;6.0;;
63690;SDS011;49837;57.280;27.070;2024-03-29T03:16:29;11.8;;;6.1;;
63690;SDS011;49837;57.280;27.070;2024-03-29T03:17:30;9.2;;;5.9;;
63690;SDS011;49837;57.280;27.070;2024-03-29T03:18:30;11.8;;;6.4;;
63690;SDS011;49837;57.280;27.070;2024-03-29T03:19:30;9.5;;;5.8;;
63690;SDS011;49837;57.280;27.070;2024-03-29T03:20:30;11.3;;;6.4;;
63690;SDS011;49837;57.280;27.070;2024-03-29T03:21:31;9.7;;;6.0;;
63690;SDS011;49837;57.280;27.070;2024-03-29T03:22:31;11.0;;;5.8;;
63690;SDS011;49837;57.280;27.070;2024-03-29T03:23:32;9.1;;;6.2;;
63690;SDS011;49837;57.280;27.070;2024-03-29T03:24:32;10.6;;;6.6;;
63690;SDS011;49837;57.280;27.070;2024-03-29T03:25:33;11.4;;;6.6;;
63690;SDS011;49837;57.280;27.070;2024-03-29T03:26:33;11.2;;;6.2;;
63690;SDS011;49837;57.280;27.070;2024-03-29T03:27:34;10.0;;;6.0;;
63690;SDS011;49837;57.280;27.070;2024-03-29T03:28:34;10.4;;;6.0;;
63690;SDS011;49837;57.280;27.070;2024-03-29T03:29:35;8.6;;;6.0;;
63690;SDS011;49837;57.280;27.070;2024-03-29T03:30:39;12.4;;;6.3;;
63690;SDS011;49837;57.280;27.070;2024-03-29T03:31:37;10.7;;;6.8;;
63690;SDS011;49837;57.280;27.070;2024-03-29T03:32:37;11.0;;;6.4;;
63690;SDS011;49837;57.280;27.070;2024-03-29T03:33:37;11.0;;;6.1;;
63690;SDS011;49837;57.280;27.070;2024-03-29T03:34:38;9.7;;;6.1;;
63690;SDS011;49837;57.280;27.070;2024-03-29T03:35:38;12.2;;;6.0;;
63690;SDS011;49837;57.280;27.070;2024-03-29T03:36:39;10.7;;;6.1;;
63690;SDS011;49837;57.280;27.070;2024-03-29T03:37:39;9.3;;;5.9;;
63690;SDS011;49837;57.280;27.070;2024-03-29T03:38:39;10.5;;;6.3;;
63690;SDS011;49837;57.280;27.070;2024-03-29T03:39:40;12.4;;;6.6;;
63690;SDS011;49837;57.280;27.070;2024-03-29T03:40:40;14.1;;;7.3;;
63690;SDS011;49837;57.280;27.070;2024-03-29T03:41:41;21.0;;;12.5;;
63690;SDS011;49837;57.280;27.070;2024-03-29T03:42:41;16.9;;;9.4;;
63690;SDS011;49837;57.280;27.070;2024-03-29T03:43:41;11.6;;;6.8;;
63690;SDS011;49837;57.280;27.070;2024-03-29T03:44:42;10.7;;;6.6;;
63690;SDS011;49837;57.280;27.070;2024-03-29T03:45:42;11.0;;;6.7;;
63690;SDS011;49837;57.280;27.070;2024-03-29T03:46:43;9.3;;;6.5;;
63690;SDS011;49837;57.280;27.070;2024-03-29T03:47:43;12.0;;;7.4;;
63690;SDS011;49837;57.280;27.070;2024-03-29T03:48:43;9.3;;;6.4;;
63690;SDS011;49837;57.280;27.070;2024-03-29T03:49:44;9.3;;;6.4;;
63690;SDS011;49837;57.280;27.070;2024-03-29T03:50:44;9.3;;;6.4;;
63690;SDS011;49837;57.280;27.070;2024-03-29T03:51:44;11.3;;;6.4;;
63690;SDS011;49837;57.280;27.070;2024-03-29T03:52:45;10.1;;;6.2;;
63690;SDS011;49837;57.280;27.070;2024-03-29T03:53:45;12.6;;;6.8;;
63690;SDS011;49837;57.280;27.070;2024-03-29T03:54:46;10.2;;;6.4;;
63690;SDS011;49837;57.280;27.070;2024-03-29T03:55:46;11.5;;;6.1;;
63690;SDS011;49837;57.280;27.070;2024-03-29T03:56:46;10.0;;;6.4;;
63690;SDS011;49837;57.280;27.070;2024-03-29T03:57:47;12.6;;;6.5;;
63690;SDS011;49837;57.280;27.070;2024-03-29T03:58:47;11.9;;;6.4;;
63690;SDS011;49837;57.280;27.070;2024-03-29T03:59:51;11.2;;;6.9;;
63690;SDS011;49837;57.280;27.070;2024-03-29T04:00:48;12.2;;;6.5;;
63690;SDS011;49837;57.280;27.070;2024-03-29T04:01:48;10.9;;;6.3;;
63690;SDS011;49837;57.280;27.070;2024-03-29T04:02:49;10.7;;;6.9;;
63690;SDS011;49837;57.280;27.070;2024-03-29T04:03:49;12.6;;;6.9;;
63690;SDS011;49837;57.280;27.070;2024-03-29T04:04:50;10.6;;;6.4;;
63690;SDS011;49837;57.280;27.070;2024-03-29T04:05:50;12.8;;;6.8;;
63690;SDS011;49837;57.280;27.070;2024-03-29T04:06:50;10.2;;;6.2;;
63690;SDS011;49837;57.280;27.070;2024-03-29T04:07:51;11.2;;;6.4;;
63690;SDS011;49837;57.280;27.070;2024-03-29T04:08:51;10.9;;;6.7;;
63690;SDS011;49837;57.280;27.070;2024-03-29T04:09:52;11.2;;;6.7;;
63690;SDS011;49837;57.280;27.070;2024-03-29T04:10:52;10.6;;;6.3;;
63690;SDS011;49837;57.280;27.070;2024-03-29T04:11:52;14.8;;;6.7;;
63690;SDS011;49837;57.280;27.070;2024-03-29T04:12:53;10.1;;;6.2;;
63690;SDS011;49837;57.280;27.070;2024-03-29T04:13:53;10.9;;;6.9;;
63690;SDS011;49837;57.280;27.070;2024-03-29T04:14:54;10.2;;;6.6;;
63690;SDS011;49837;57.280;27.070;2024-03-29T04:16:00;10.9;;;6.2;;
63690;SDS011;49837;57.280;27.070;2024-03-29T04:16:57;11.1;;;6.0;;
63690;SDS011;49837;57.280;27.070;2024-03-29T04:17:59;11.8;;;6.3;;
63690;SDS011;49837;57.280;27.070;2024-03-29T04:18:58;9.6;;;6.0;;
63690;SDS011;49837;57.280;27.070;2024-03-29T04:19:59;10.8;;;6.2;;
63690;SDS011;49837;57.280;27.070;2024-03-29T04:21:00;11.1;;;6.3;;
63690;SDS011;49837;57.280;27.070;2024-03-29T04:21:59;11.6;;;6.4;;
63690;SDS011;49837;57.280;27.070;2024-03-29T04:23:00;11.7;;;6.5;;
63690;SDS011;49837;57.280;27.070;2024-03-29T04:24:03;12.3;;;6.6;;
63690;SDS011;49837;57.280;27.070;2024-03-29T04:25:03;11.7;;;6.6;;
63690;SDS011;49837;57.280;27.070;2024-03-29T04:26:03;12.0;;;6.8;;
63690;SDS011;49837;57.280;27.070;2024-03-29T04:27:04;12.3;;;6.6;;
63690;SDS011;49837;57.280;27.070;2024-03-29T04:28:04;8.2;;;6.1;;
63690;SDS011;49837;57.280;27.070;2024-03-29T04:29:04;10.8;;;6.1;;
63690;SDS011;49837;57.280;27.070;2024-03-29T04:30:05;10.8;;;6.4;;
63690;SDS011;49837;57.280;27.070;2024-03-29T04:31:05;13.2;;;6.8;;
63690;SDS011;49837;57.280;27.070;2024-03-29T04:32:06;11.7;;;6.6;;
63690;SDS011;49837;57.280;27.070;2024-03-29T04:33:06;11.6;;;7.2;;
63690;SDS011;49837;57.280;27.070;2024-03-29T04:34:06;13.0;;;7.8;;
63690;SDS011;49837;57.280;27.070;2024-03-29T04:35:07;15.6;;;9.2;;
63690;SDS011;49837;57.280;27.070;2024-03-29T04:36:07;13.4;;;7.3;;
63690;SDS011;49837;57.280;27.070;2024-03-29T04:37:08;13.9;;;7.4;;
63690;SDS011;49837;57.280;27.070;2024-03-29T04:38:08;12.8;;;7.0;;
63690;SDS011;49837;57.280;27.070;2024-03-29T04:39:08;10.0;;;6.1;;
63690;SDS011;49837;57.280;27.070;2024-03-29T04:40:09;10.8;;;6.8;;
63690;SDS011;49837;57.280;27.070;2024-03-29T04:41:09;11.7;;;7.1;;
63690;SDS011;49837;57.280;27.070;2024-03-29T04:42:10;13.3;;;7.2;;
63690;SDS011;49837;57.280;27.070;2024-03-29T04:43:10;13.4;;;6.9;;
63690;SDS011;49837;57.280;27.070;2024-03-29T04:44:11;9.4;;;6.6;;
63690;SDS011;49837;57.280;27.070;2024-03-29T04:45:11;17.9;;;9.0;;
63690;SDS011;49837;57.280;27.070;2024-03-29T04:46:11;14.7;;;8.5;;
63690;SDS011;49837;57.280;27.070;2024-03-29T04:47:12;11.0;;;7.1;;
63690;SDS011;49837;57.280;27.070;2024-03-29T04:48:12;16.5;;;9.5;;
63690;SDS011;49837;57.280;27.070;2024-03-29T04:49:12;14.4;;;8.7;;
63690;SDS011;49837;57.280;27.070;2024-03-29T04:50:13;13.0;;;6.8;;
63690;SDS011;49837;57.280;27.070;2024-03-29T04:51:13;11.1;;;7.2;;
63690;SDS011;49837;57.280;27.070;2024-03-29T04:52:13;16.5;;;10.3;;
63690;SDS011;49837;57.280;27.070;2024-03-29T04:53:14;14.7;;;8.3;;
63690;SDS011;49837;57.280;27.070;2024-03-29T04:54:14;12.9;;;7.7;;
63690;SDS011;49837;57.280;27.070;2024-03-29T04:55:15;12.0;;;7.1;;
63690;SDS011;49837;57.280;27.070;2024-03-29T04:56:15;15.0;;;7.5;;
63690;SDS011;49837;57.280;27.070;2024-03-29T04:57:15;10.8;;;7.2;;
63690;SDS011;49837;57.280;27.070;2024-03-29T04:58:16;12.8;;;7.1;;
63690;SDS011;49837;57.280;27.070;2024-03-29T04:59:16;14.2;;;7.2;;
63690;SDS011;49837;57.280;27.070;2024-03-29T05:00:17;12.9;;;7.3;;
63690;SDS011;49837;57.280;27.070;2024-03-29T05:01:17;12.8;;;7.3;;
63690;SDS011;49837;57.280;27.070;2024-03-29T05:02:17;18.0;;;8.2;;
63690;SDS011;49837;57.280;27.070;2024-03-29T05:03:18;17.7;;;9.8;;
63690;SDS011;49837;57.280;27.070;2024-03-29T05:04:18;13.4;;;8.7;;
63690;SDS011;49837;57.280;27.070;2024-03-29T05:05:19;14.0;;;9.1;;
63690;SDS011;49837;57.280;27.070;2024-03-29T05:06:19;14.4;;;8.6;;
63690;SDS011;49837;57.280;27.070;2024-03-29T05:07:19;16.3;;;8.8;;
63690;SDS011;49837;57.280;27.070;2024-03-29T05:08:20;14.5;;;8.8;;
63690;SDS011;49837;57.280;27.070;2024-03-29T05:09:20;13.1;;;8.6;;
63690;SDS011;49837;57.280;27.070;2024-03-29T05:10:20;12.7;;;8.1;;
63690;SDS011;49837;57.280;27.070;2024-03-29T05:11:21;13.1;;;8.6;;
63690;SDS011;49837;57.280;27.070;2024-03-29T05:12:21;13.1;;;7.7;;
63690;SDS011;49837;57.280;27.070;2024-03-29T05:13:22;13.3;;;7.9;;
63690;SDS011;49837;57.280;27.070;2024-03-29T05:14:22;13.8;;;7.9;;
63690;SDS011;49837;57.280;27.070;2024-03-29T05:15:22;13.5;;;7.9;;
63690;SDS011;49837;57.280;27.070;2024-03-29T05:16:23;12.4;;;7.7;;
63690;SDS011;49837;57.280;27.070;2024-03-29T05:17:23;14.9;;;7.9;;
63690;SDS011;49837;57.280;27.070;2024-03-29T05:18:24;13.9;;;8.2;;
63690;SDS011;49837;57.280;27.070;2024-03-29T05:19:24;14.8;;;8.3;;
63690;SDS011;49837;57.280;27.070;2024-03-29T05:20:24;11.1;;;8.0;;
63690;SDS011;49837;57.280;27.070;2024-03-29T05:21:25;11.5;;;7.6;;
63690;SDS011;49837;57.280;27.070;2024-03-29T05:22:25;13.0;;;8.1;;
63690;SDS011;49837;57.280;27.070;2024-03-29T05:23:25;12.8;;;8.2;;
63690;SDS011;49837;57.280;27.070;2024-03-29T05:24:26;13.5;;;8.2;;
63690;SDS011;49837;57.280;27.070;2024-03-29T05:25:26;11.9;;;7.7;;
63690;SDS011;49837;57.280;27.070;2024-03-29T05:26:27;13.1;;;8.5;;
63690;SDS011;49837;57.280;27.070;2024-03-29T05:27:27;13.5;;;8.1;;
63690;SDS011;49837;57.280;27.070;2024-03-29T05:28:27;11.9;;;8.2;;
63690;SDS011;49837;57.280;27.070;2024-03-29T05:29:28;12.3;;;7.9;;
63690;SDS011;49837;57.280;27.070;2024-03-29T05:30:28;12.8;;;8.0;;
63690;SDS011;49837;57.280;27.070;2024-03-29T05:31:29;13.2;;;8.1;;
63690;SDS011;49837;57.280;27.070;2024-03-29T05:32:29;13.3;;;8.6;;
63690;SDS011;49837;57.280;27.070;2024-03-29T05:33:29;12.9;;;8.2;;
63690;SDS011;49837;57.280;27.070;2024-03-29T05:34:30;12.7;;;8.4;;
63690;SDS011;49837;57.280;27.070;2024-03-29T05:35:30;12.4;;;8.3;;
63690;SDS011;49837;57.280;27.070;2024-03-29T05:36:30;11.5;;;8.2;;
63690;SDS011;49837;57.280;27.070;2024-03-29T05:37:31;15.6;;;9.2;;
63690;SDS011;49837;57.280;27.070;2024-03-29T05:38:31;15.6;;;9.4;;
63690;SDS011;49837;57.280;27.070;2024-03-29T05:39:32;14.5;;;9.0;;
63690;SDS011;49837;57.280;27.070;2024-03-29T05:40:32;15.4;;;8.6;;
63690;SDS011;49837;57.280;27.070;2024-03-29T05:41:32;15.0;;;9.1;;
63690;SDS011;49837;57.280;27.070;2024-03-29T05:42:33;15.6;;;9.1;;
63690;SDS011;49837;57.280;27.070;2024-03-29T05:43:33;13.2;;;8.6;;
63690;SDS011;49837;57.280;27.070;2024-03-29T05:44:34;14.8;;;8.0;;
63690;SDS011;49837;57.280;27.070;2024-03-29T05:45:34;14.0;;;8.4;;
63690;SDS011;49837;57.280;27.070;2024-03-29T05:46:34;13.1;;;8.5;;
63690;SDS011;49837;57.280;27.070;2024-03-29T05:47:35;13.6;;;8.9;;
63690;SDS011;49837;57.280;27.070;2024-03-29T05:48:35;14.2;;;9.4;;
63690;SDS011;49837;57.280;27.070;2024-03-29T05:49:35;13.9;;;8.9;;
63690;SDS011;49837;57.280;27.070;2024-03-29T05:50:36;13.9;;;9.2;;
63690;SDS011;49837;57.280;27.070;2024-03-29T05:51:36;16.7;;;8.8;;
63690;SDS011;49837;57.280;27.070;2024-03-29T05:52:37;12.9;;;8.7;;
63690;SDS011;49837;57.280;27.070;2024-03-29T05:53:37;11.9;;;9.2;;
63690;SDS011;49837;57.280;27.070;2024-03-29T05:54:37;13.5;;;9.0;;
63690;SDS011;49837;57.280;27.070;2024-03-29T05:55:38;16.0;;;8.9;;
63690;SDS011;49837;57.280;27.070;2024-03-29T05:56:38;14.5;;;9.3;;
63690;SDS011;49837;57.280;27.070;2024-03-29T05:57:38;13.0;;;8.8;;
63690;SDS011;49837;57.280;27.070;2024-03-29T05:58:39;14.7;;;8.9;;
63690;SDS011;49837;57.280;27.070;2024-03-29T05:59:39;15.1;;;8.9;;
63690;SDS011;49837;57.280;27.070;2024-03-29T06:00:40;14.4;;;9.8;;
63690;SDS011;49837;57.280;27.070;2024-03-29T06:01:40;15.6;;;10.0;;
63690;SDS011;49837;57.280;27.070;2024-03-29T06:02:41;13.9;;;8.9;;
63690;SDS011;49837;57.280;27.070;2024-03-29T06:03:41;16.6;;;8.7;;
63690;SDS011;49837;57.280;27.070;2024-03-29T06:04:41;13.7;;;9.0;;
63690;SDS011;49837;57.280;27.070;2024-03-29T06:05:42;12.8;;;9.0;;